Time;durP1;ratioP1;P1;durP2;ratioP2;P2;SDS_P1;SDS_P2;PMS_P1;PMS_P2;Temp;Humidity;BMP_temperature;BMP_pressure;BME280_temperature;BME280_humidity;BME280_pressure;Samples;Min_cycle;Max_cycle;Signal;HPM_P1;HPM_P2
2023/01/20 05:30:50;;;;;;;6.75;4.45;;;2.40;82.60;;;;;;5723312;23;20035;-77
2023/01/20 05:33:16;;;;;;;5.97;4.53;;;2.30;82.50;;;;;;4931852;29;20054;-77
2023/01/20 05:35:42;;;;;;;6.10;4.47;;;2.30;82.50;;;;;;4937294;29;20046;-76
2023/01/20 05:38:07;;;;;;;9.30;6.43;;;2.30;82.60;;;;;;4917003;29;20043;-77
2023/01/20 05:40:33;;;;;;;9.05;5.00;;;2.20;82.60;;;;;;4937409;29;20384;-77
2023/01/20 05:43:02;;;;;;;9.18;5.18;;;2.20;82.60;;;;;;4920802;29;20049;-78
2023/01/20 05:45:29;;;;;;;4.28;3.58;;;2.20;82.50;;;;;;4938385;29;20032;-80
2023/01/20 05:47:56;;;;;;;10.35;4.93;;;2.20;82.70;;;;;;4925943;29;20167;-78
2023/01/20 05:50:22;;;;;;;7.95;4.03;;;2.10;82.50;;;;;;4902374;29;20036;-78
2023/01/20 05:52:48;;;;;;;4.93;3.92;;;2.00;82.50;;;;;;4923740;29;20029;-81
2023/01/20 05:55:13;;;;;;;5.07;4.00;;;2.00;82.50;;;;;;4936174;29;20094;-77
2023/01/20 05:57:39;;;;;;;5.15;4.38;;;2.00;82.50;;;;;;4920944;29;20032;-78
2023/01/20 06:00:05;;;;;;;6.10;4.15;;;2.00;82.60;;;;;;4938145;29;20035;-78
2023/01/20 06:02:31;;;;;;;4.65;3.65;;;1.90;82.70;;;;;;4913631;29;20398;-76
2023/01/20 06:05:00;;;;;;;4.30;3.88;;;1.90;82.60;;;;;;4920865;29;20244;-81
2023/01/20 06:07:29;;;;;;;5.70;4.28;;;1.90;82.70;;;;;;4938306;29;20070;-77
2023/01/20 06:09:55;;;;;;;7.43;5.18;;;1.90;82.30;;;;;;4917027;29;20039;-77
2023/01/20 06:12:21;;;;;;;7.80;5.05;;;1.80;82.40;;;;;;4934721;29;20055;-77
2023/01/20 06:14:51;;;;;;;5.78;3.90;;;1.90;82.60;;;;;;4920712;29;20402;-82
2023/01/20 06:17:16;;;;;;;6.43;4.03;;;1.90;82.80;;;;;;4922128;29;20020;-81
2023/01/20 06:19:42;;;;;;;7.20;5.70;;;1.90;82.80;;;;;;4918199;29;20848;-90
2023/01/20 06:22:13;;;;;;;8.60;4.05;;;1.90;82.70;;;;;;4926038;29;20047;-82
2023/01/20 06:24:39;;;;;;;4.05;3.75;;;1.90;82.70;;;;;;4917415;29;20109;-78
2023/01/20 06:27:12;;;;;;;5.47;4.25;;;1.90;82.50;;;;;;4919306;29;20031;-78
2023/01/20 06:29:38;;;;;;;5.18;4.47;;;1.90;82.60;;;;;;4930341;29;20082;-78
2023/01/20 06:32:04;;;;;;;3.13;2.92;;;1.90;82.50;;;;;;4930694;29;20036;-77
2023/01/20 06:34:29;;;;;;;4.15;3.75;;;1.90;82.40;;;;;;4908606;29;20050;-78
2023/01/20 06:36:55;;;;;;;5.90;4.28;;;1.90;82.60;;;;;;4934365;29;20055;-78
2023/01/20 06:39:21;;;;;;;5.90;3.97;;;1.90;82.60;;;;;;4918040;29;20039;-78
2023/01/20 06:41:47;;;;;;;5.93;5.15;;;2.00;82.70;;;;;;4935379;29;20024;-78
2023/01/20 06:44:12;;;;;;;5.25;4.75;;;2.00;82.80;;;;;;4936681;29;20059;-78
2023/01/20 06:46:38;;;;;;;5.35;4.22;;;2.20;82.90;;;;;;4927391;29;20047;-78
2023/01/20 06:49:04;;;;;;;10.07;5.15;;;2.20;82.80;;;;;;4935837;29;20035;-78
2023/01/20 06:51:30;;;;;;;6.55;4.72;;;2.30;82.80;;;;;;4939572;29;20028;-78
2023/01/20 06:53:56;;;;;;;8.05;3.90;;;2.30;82.60;;;;;;4937002;29;20117;-78
2023/01/20 06:56:22;;;;;;;10.30;4.93;;;2.40;82.60;;;;;;4922046;29;20039;-78
2023/01/20 06:58:48;;;;;;;5.78;5.18;;;2.40;82.50;;;;;;4925392;29;20494;-78
2023/01/20 07:01:18;;;;;;;6.72;4.70;;;2.40;82.50;;;;;;4905056;29;20399;-78
2023/01/20 07:03:44;;;;;;;8.65;4.20;;;2.50;82.40;;;;;;4938833;29;20035;-77
2023/01/20 07:06:18;;;;;;;4.82;4.22;;;2.50;82.40;;;;;;4936549;29;20046;-77
2023/01/20 07:08:44;;;;;;;5.93;4.70;;;2.60;82.20;;;;;;4938640;29;20032;-77
2023/01/20 07:11:10;;;;;;;9.95;5.15;;;2.60;82.20;;;;;;4923574;29;20525;-77
2023/01/20 07:13:35;;;;;;;6.38;4.80;;;2.60;82.10;;;;;;4942226;29;20024;-77
2023/01/20 07:16:01;;;;;;;6.25;5.32;;;2.70;82.10;;;;;;4940756;29;20407;-77
2023/01/20 07:18:27;;;;;;;13.95;5.10;;;2.70;82.00;;;;;;4940944;29;20032;-78
2023/01/20 07:20:56;;;;;;;7.70;4.60;;;2.70;82.00;;;;;;4929688;29;20044;-77
2023/01/20 07:23:22;;;;;;;13.40;6.35;;;2.70;82.00;;;;;;4934769;29;20038;-77
2023/01/20 07:26:09;;;;;;;5.65;5.15;;;2.70;82.00;;;;;;4941151;29;20042;-78
2023/01/20 07:28:36;;;;;;;11.32;6.95;;;2.70;82.30;;;;;;4926589;29;20046;-78
2023/01/20 07:31:15;;;;;;;9.45;7.88;;;2.70;82.40;;;;;;4923151;29;20111;-78
2023/01/20 07:33:41;;;;;;;6.53;5.30;;;2.70;82.50;;;;;;4934122;29;20107;-78
2023/01/20 07:36:08;;;;;;;6.28;5.57;;;2.70;82.60;;;;;;4940658;29;20050;-78
2023/01/20 07:38:34;;;;;;;14.48;7.22;;;2.70;82.80;;;;;;4940711;29;20499;-78
2023/01/20 07:41:02;;;;;;;8.85;6.40;;;2.70;82.80;;;;;;4940865;29;20037;-78
2023/01/20 07:43:28;;;;;;;9.95;6.85;;;2.70;83.00;;;;;;4928104;29;20032;-78
2023/01/20 07:45:55;;;;;;;14.93;8.60;;;2.70;82.90;;;;;;4930563;29;20517;-78
2023/01/20 07:48:20;;;;;;;20.52;12.10;;;2.70;82.90;;;;;;4934902;29;20036;-78
2023/01/20 07:50:46;;;;;;;19.70;11.52;;;2.70;82.80;;;;;;4940569;29;20035;-78
2023/01/20 07:53:12;;;;;;;11.13;7.32;;;2.70;82.80;;;;;;4919328;29;20578;-78
2023/01/20 07:55:37;;;;;;;6.63;5.43;;;2.70;82.70;;;;;;4939140;29;20035;-77
2023/01/20 07:58:03;;;;;;;8.40;5.05;;;2.70;82.70;;;;;;4918485;29;20040;-78
2023/01/20 08:00:29;;;;;;;7.85;5.38;;;2.60;82.60;;;;;;4938795;29;20031;-78
2023/01/20 08:02:54;;;;;;;10.00;6.05;;;2.60;82.70;;;;;;4947464;29;20041;-78
2023/01/20 08:05:21;;;;;;;5.70;4.88;;;2.50;82.60;;;;;;4940063;29;20023;-78
2023/01/20 08:07:51;;;;;;;7.82;5.53;;;2.60;82.60;;;;;;4940233;29;20024;-78
2023/01/20 08:10:17;;;;;;;5.40;4.22;;;2.50;82.60;;;;;;4939093;29;20124;-79
2023/01/20 08:12:42;;;;;;;10.52;5.03;;;2.50;82.70;;;;;;4928727;29;20048;-78
2023/01/20 08:15:09;;;;;;;6.82;5.10;;;2.40;82.50;;;;;;4922464;29;20111;-78
2023/01/20 08:17:34;;;;;;;5.90;5.07;;;2.40;82.60;;;;;;4938671;29;20027;-78
2023/01/20 08:20:00;;;;;;;5.40;4.85;;;2.30;82.70;;;;;;4931072;29;20038;-78
2023/01/20 08:22:25;;;;;;;8.32;7.47;;;2.40;82.60;;;;;;4939017;29;20031;-78
2023/01/20 08:24:51;;;;;;;16.75;9.40;;;2.40;82.50;;;;;;4920900;29;20047;-78
2023/01/20 08:27:17;;;;;;;9.15;8.25;;;2.40;82.60;;;;;;4939115;29;20031;-78
2023/01/20 08:29:43;;;;;;;10.93;7.32;;;2.40;82.50;;;;;;4939742;29;20031;-78
2023/01/20 08:32:08;;;;;;;9.15;6.43;;;2.40;82.50;;;;;;4939497;29;20152;-78
2023/01/20 08:34:34;;;;;;;7.78;5.43;;;2.40;82.50;;;;;;4918578;29;20054;-78
2023/01/20 08:36:59;;;;;;;10.20;7.05;;;2.40;82.50;;;;;;4939738;29;20040;-78
2023/01/20 08:39:25;;;;;;;8.93;6.38;;;2.40;82.30;;;;;;4938342;29;20577;-78
2023/01/20 08:41:51;;;;;;;13.30;6.97;;;2.40;82.00;;;;;;4938876;29;20095;-78
2023/01/20 08:44:17;;;;;;;19.90;8.15;;;2.50;82.10;;;;;;4922789;29;20040;-78
2023/01/20 08:46:43;;;;;;;8.55;6.45;;;2.50;82.00;;;;;;4932900;29;20091;-78
2023/01/20 08:49:12;;;;;;;7.28;6.05;;;2.50;82.00;;;;;;4922157;29;20395;-78
2023/01/20 08:51:42;;;;;;;10.30;5.97;;;2.50;82.10;;;;;;4939198;29;20032;-78
2023/01/20 08:54:08;;;;;;;11.95;6.32;;;2.60;82.00;;;;;;4938428;29;20032;-78
2023/01/20 08:56:35;;;;;;;10.07;5.88;;;2.60;81.90;;;;;;4920798;29;20051;-79
2023/01/20 08:59:02;;;;;;;6.93;4.95;;;2.60;82.00;;;;;;4938980;29;20103;-78
2023/01/20 09:01:30;;;;;;;7.03;4.63;;;2.70;82.00;;;;;;4938203;29;20051;-78
2023/01/20 09:03:57;;;;;;;5.78;4.10;;;2.70;82.00;;;;;;4920075;29;20054;-78
2023/01/20 09:06:22;;;;;;;6.57;5.80;;;2.70;82.30;;;;;;4938704;29;20036;-78
2023/01/20 09:08:50;;;;;;;6.28;5.28;;;2.80;82.50;;;;;;4937636;29;20039;-78
2023/01/20 09:11:18;;;;;;;6.32;5.47;;;2.80;82.30;;;;;;4938783;29;20031;-78
2023/01/20 09:13:44;;;;;;;9.07;5.60;;;2.80;82.20;;;;;;4938439;29;20027;-78
2023/01/20 09:16:12;;;;;;;8.32;6.10;;;2.90;82.20;;;;;;4920549;29;20028;-78
2023/01/20 09:18:38;;;;;;;8.88;6.72;;;3.00;82.10;;;;;;4938203;29;20827;-78
2023/01/20 09:21:05;;;;;;;7.35;4.95;;;3.10;82.00;;;;;;4938280;29;20032;-78
2023/01/20 09:23:32;;;;;;;10.18;7.80;;;3.20;81.90;;;;;;4938313;29;20031;-78
2023/01/20 09:26:02;;;;;;;10.75;5.97;;;3.50;81.70;;;;;;4937405;29;20039;-78
2023/01/20 09:28:29;;;;;;;11.35;7.75;;;3.80;81.00;;;;;;4936889;29;20050;-78
2023/01/20 09:31:03;;;;;;;12.90;8.20;;;4.00;80.60;;;;;;4937685;29;20099;-78
2023/01/20 09:33:29;;;;;;;11.15;6.38;;;4.30;80.20;;;;;;4919247;29;20074;-78
2023/01/20 09:35:56;;;;;;;6.68;5.38;;;4.50;79.70;;;;;;4938357;29;20027;-78
2023/01/20 09:44:33;;;;;;;10.05;8.07;;;4.30;79.90;;;;;;4920143;29;20119;-78
2023/01/20 09:47:20;;;;;;;13.07;7.40;;;4.20;80.50;;;;;;4921181;29;20040;-78
2023/01/20 09:53:21;;;;;;;8.70;6.53;;;4.20;80.80;;;;;;4939232;29;20090;-79
2023/01/20 09:55:51;;;;;;;9.65;7.15;;;4.10;81.00;;;;;;4919611;29;20114;-78
2023/01/20 09:58:38;;;;;;;13.55;8.15;;;4.10;81.00;;;;;;4920624;29;20062;-78
2023/01/20 10:01:20;;;;;;;11.32;8.07;;;4.10;81.40;;;;;;4935791;29;20036;-78
2023/01/20 10:04:02;;;;;;;11.90;7.05;;;4.10;81.50;;;;;;4936056;29;20031;-78
2023/01/20 10:06:34;;;;;;;9.50;6.53;;;4.20;81.50;;;;;;4935718;29;20036;-78
2023/01/20 10:09:13;;;;;;;10.13;5.97;;;4.20;81.60;;;;;;4920757;29;20083;-78
2023/01/20 10:11:41;;;;;;;6.03;5.45;;;4.20;81.50;;;;;;4937587;29;20052;-79
2023/01/20 10:14:28;;;;;;;9.55;5.18;;;4.20;81.40;;;;;;4937781;29;20032;-78
2023/01/20 10:16:59;;;;;;;8.43;5.45;;;4.30;81.40;;;;;;4931187;29;20031;-78
2023/01/20 10:19:35;;;;;;;12.38;5.85;;;4.30;81.30;;;;;;4938364;29;20562;-78
2023/01/20 10:22:15;;;;;;;8.43;5.60;;;4.40;81.10;;;;;;4937664;29;20028;-79
2023/01/20 10:24:57;;;;;;;4.50;4.10;;;4.50;80.90;;;;;;4918490;29;20109;-79
2023/01/20 10:27:27;;;;;;;10.13;6.35;;;4.50;80.90;;;;;;4931467;29;20051;-79
2023/01/20 10:29:59;;;;;;;11.07;6.60;;;4.50;80.90;;;;;;4924729;29;20072;-79
2023/01/20 10:32:35;;;;;;;6.78;4.63;;;4.50;81.00;;;;;;4927339;29;20324;-79
2023/01/20 10:35:24;;;;;;;6.25;4.90;;;4.50;80.90;;;;;;4937110;29;20490;-78
2023/01/20 10:37:52;;;;;;;8.40;4.85;;;4.60;80.90;;;;;;4937518;29;20117;-78
2023/01/20 10:40:40;;;;;;;7.15;5.03;;;4.60;80.70;;;;;;4924183;29;20063;-78
2023/01/20 10:43:12;;;;;;;9.95;5.57;;;4.60;80.80;;;;;;4936057;29;20031;-78
2023/01/20 10:45:59;;;;;;;6.25;5.40;;;4.60;80.80;;;;;;4929148;29;20081;-78
2023/01/20 10:48:47;;;;;;;8.07;5.95;;;4.70;81.00;;;;;;4936482;29;20040;-78
2023/01/20 10:51:21;;;;;;;7.93;4.97;;;4.70;80.90;;;;;;4937392;29;20034;-79
2023/01/20 10:54:18;;;;;;;10.20;5.32;;;4.60;80.80;;;;;;4927388;29;20103;-79
2023/01/20 10:56:52;;;;;;;8.27;6.40;;;4.60;80.80;;;;;;4920658;29;20028;-79
2023/01/20 10:59:50;;;;;;;11.50;5.72;;;4.60;80.80;;;;;;4937857;29;20035;-79
2023/01/20 11:02:27;;;;;;;9.65;5.78;;;4.50;80.70;;;;;;4907537;29;20051;-79
2023/01/20 11:05:16;;;;;;;8.38;6.40;;;4.60;80.70;;;;;;4935587;29;20094;-79
2023/01/20 11:07:44;;;;;;;13.50;6.28;;;4.60;80.80;;;;;;4936273;29;20055;-79
2023/01/20 11:10:19;;;;;;;8.60;7.22;;;4.60;80.80;;;;;;4945231;29;20042;-79
2023/01/20 11:12:48;;;;;;;8.75;6.43;;;4.60;80.90;;;;;;4937153;29;20099;-78
2023/01/20 11:15:20;;;;;;;9.23;6.43;;;4.70;80.60;;;;;;4920456;29;20030;-79
2023/01/20 11:18:06;;;;;;;6.47;5.57;;;4.70;80.70;;;;;;4929392;29;20407;-80
2023/01/20 11:20:35;;;;;;;8.63;5.93;;;4.80;80.40;;;;;;4920071;29;20083;-81
2023/01/20 11:23:01;;;;;;;15.48;8.25;;;4.80;80.40;;;;;;4927440;29;20027;-80
2023/01/20 11:25:26;;;;;;;17.05;10.63;;;4.90;80.40;;;;;;4920740;29;20372;-84
2023/01/20 11:27:53;;;;;;;11.88;8.60;;;4.90;80.30;;;;;;4920561;29;20126;-80
2023/01/20 11:30:22;;;;;;;9.90;7.25;;;5.00;80.30;;;;;;4920606;29;20031;-79
2023/01/20 11:33:17;;;;;;;9.55;6.90;;;5.00;80.40;;;;;;4919866;29;20039;-79
2023/01/20 11:35:58;;;;;;;14.40;8.18;;;5.00;80.30;;;;;;4937541;29;20110;-81
2023/01/20 11:38:45;;;;;;;12.77;8.63;;;5.10;80.40;;;;;;4931698;29;20039;-87
2023/01/20 11:41:20;;;;;;;16.08;8.43;;;5.10;80.30;;;;;;4922355;29;20039;-84
2023/01/20 11:43:46;;;;;;;15.25;8.27;;;5.20;80.20;;;;;;4923857;29;20098;-83
2023/01/20 11:46:22;;;;;;;11.90;9.07;;;5.20;80.40;;;;;;4937583;29;20071;-81
2023/01/20 11:49:05;;;;;;;10.05;7.93;;;5.30;80.60;;;;;;4926757;29;20044;-83
2023/01/20 11:51:30;;;;;;;12.52;8.18;;;5.40;80.40;;;;;;4932486;29;20537;-85
2023/01/20 11:54:07;;;;;;;9.85;7.10;;;5.50;80.30;;;;;;4940974;29;20027;-83
2023/01/20 11:56:39;;;;;;;9.27;7.72;;;5.50;79.80;;;;;;4921010;29;20036;-85
2023/01/20 11:59:36;;;;;;;15.32;8.50;;;5.50;80.20;;;;;;4927108;29;20031;-82
2023/01/20 12:02:22;;;;;;;11.45;6.80;;;5.50;79.80;;;;;;4925234;29;20043;-83
2023/01/20 12:05:15;;;;;;;7.90;5.50;;;5.50;80.40;;;;;;4934041;29;20036;-85
2023/01/20 12:07:45;;;;;;;9.40;5.57;;;5.50;80.80;;;;;;4933974;29;20506;-88
2023/01/20 12:10:33;;;;;;;12.93;6.80;;;5.50;80.90;;;;;;4922245;29;20110;-85
2023/01/20 12:13:17;;;;;;;12.82;8.32;;;5.50;81.10;;;;;;4935414;29;20031;-83
2023/01/20 12:15:51;;;;;;;6.95;4.97;;;5.60;81.50;;;;;;4921102;29;20048;-83
2023/01/20 12:18:37;;;;;;;14.35;7.75;;;5.60;81.30;;;;;;4938144;29;20027;-83
2023/01/20 12:21:16;;;;;;;9.57;6.53;;;5.70;81.20;;;;;;4918643;29;20042;-83
2023/01/20 12:24:19;;;;;;;6.63;5.40;;;5.70;81.70;;;;;;4917374;29;20035;-83
2023/01/20 12:26:45;;;;;;;6.03;5.47;;;5.90;81.60;;;;;;4906757;29;20119;-83
2023/01/20 12:29:17;;;;;;;10.75;4.72;;;6.10;81.30;;;;;;4935221;29;20100;-83
2023/01/20 12:31:44;;;;;;;6.03;5.07;;;6.20;81.10;;;;;;4936473;29;20191;-84
2023/01/20 12:34:15;;;;;;;5.40;4.30;;;6.20;81.20;;;;;;4921702;29;20031;-88
2023/01/20 12:36:44;;;;;;;12.60;4.38;;;6.30;80.90;;;;;;4921411;29;20483;-83
2023/01/20 12:39:21;;;;;;;7.82;4.13;;;6.40;81.30;;;;;;4919019;29;20032;-84
2023/01/20 12:42:09;;;;;;;7.32;4.55;;;6.40;81.10;;;;;;4921708;29;20039;-85
2023/01/20 12:44:50;;;;;;;5.40;3.95;;;6.40;81.20;;;;;;4940232;29;20027;-84
2023/01/20 12:47:48;;;;;;;5.35;4.07;;;6.40;81.00;;;;;;4916631;29;20098;-84
2023/01/20 12:50:32;;;;;;;5.40;3.90;;;6.40;81.00;;;;;;4939588;29;20024;-84
2023/01/20 12:53:37;;;;;;;5.57;4.93;;;6.40;81.10;;;;;;4921481;29;20060;-84
2023/01/20 12:56:28;;;;;;;6.93;4.90;;;6.40;81.00;;;;;;4921530;29;20042;-84
2023/01/20 12:59:19;;;;;;;8.68;4.90;;;6.40;81.30;;;;;;4922046;29;20032;-84
2023/01/20 13:01:46;;;;;;;9.10;5.35;;;6.40;81.50;;;;;;4920318;29;20043;-84
2023/01/20 13:04:14;;;;;;;11.23;5.50;;;6.40;81.60;;;;;;4921463;29;20062;-84
2023/01/20 13:07:00;;;;;;;5.25;3.83;;;6.40;81.80;;;;;;4938391;29;20040;-84
2023/01/20 13:09:59;;;;;;;5.55;4.47;;;6.50;81.40;;;;;;4885812;29;20048;-83
2023/01/20 13:12:25;;;;;;;5.35;3.97;;;6.60;81.40;;;;;;4937392;29;20034;-84
2023/01/20 13:15:04;;;;;;;3.50;2.85;;;6.60;81.20;;;;;;4938720;29;20714;-83
2023/01/20 13:17:40;;;;;;;4.32;3.55;;;6.70;81.70;;;;;;4924335;29;20102;-84
2023/01/20 13:20:22;;;;;;;6.80;4.20;;;6.70;80.80;;;;;;4921856;29;20032;-83
2023/01/20 13:22:50;;;;;;;6.63;3.97;;;6.80;80.90;;;;;;4926316;29;20577;-84
2023/01/20 13:25:17;;;;;;;10.48;4.63;;;6.80;80.40;;;;;;4921850;29;20042;-83
2023/01/20 13:27:44;;;;;;;7.32;5.28;;;6.90;80.20;;;;;;4922321;29;20027;-84
2023/01/20 13:30:35;;;;;;;8.05;4.53;;;7.00;80.10;;;;;;4919486;29;20043;-84
2023/01/20 13:33:03;;;;;;;7.50;5.38;;;7.00;79.80;;;;;;4927578;29;20527;-84
2023/01/20 13:35:29;;;;;;;13.00;5.53;;;7.00;79.80;;;;;;4938904;29;20034;-85
2023/01/20 13:38:02;;;;;;;4.93;4.40;;;7.10;80.00;;;;;;4920301;29;20028;-84
2023/01/20 13:40:36;;;;;;;8.40;4.38;;;7.10;79.70;;;;;;4938411;29;20031;-84
2023/01/20 13:43:21;;;;;;;6.95;4.22;;;7.10;79.00;;;;;;4939638;29;20449;-85
2023/01/20 13:45:47;;;;;;;8.88;5.50;;;7.10;79.30;;;;;;4928883;29;20032;-84
2023/01/20 13:48:12;;;;;;;4.68;4.10;;;7.20;79.10;;;;;;4925995;29;20067;-85
2023/01/20 13:50:42;;;;;;;8.93;4.70;;;7.20;79.20;;;;;;4934530;29;20139;-84
2023/01/20 13:53:23;;;;;;;8.15;5.07;;;7.20;79.30;;;;;;4933430;29;20106;-84
2023/01/20 13:55:52;;;;;;;7.78;5.05;;;7.20;79.20;;;;;;4922883;29;20047;-84
2023/01/20 13:58:32;;;;;;;7.85;4.43;;;7.20;79.30;;;;;;4927524;29;20466;-84
2023/01/20 14:01:03;;;;;;;7.45;3.90;;;7.20;79.10;;;;;;4937824;29;20422;-86
2023/01/20 14:03:36;;;;;;;9.32;4.07;;;7.20;79.40;;;;;;4921701;29;20032;-84
2023/01/20 14:06:09;;;;;;;5.28;3.97;;;7.30;79.10;;;;;;4931859;29;20036;-83
2023/01/20 14:08:43;;;;;;;6.07;4.38;;;7.30;79.10;;;;;;4920379;29;20036;-85
2023/01/20 14:11:16;;;;;;;6.10;4.47;;;7.40;78.90;;;;;;4938430;29;20030;-84
2023/01/20 14:13:51;;;;;;;8.07;4.55;;;7.50;78.20;;;;;;4920112;29;20031;-83
2023/01/20 14:16:28;;;;;;;9.43;4.45;;;7.60;78.50;;;;;;4935453;29;20027;-84
2023/01/20 14:19:17;;;;;;;6.97;4.18;;;7.70;78.00;;;;;;4921856;29;20035;-84
2023/01/20 14:21:43;;;;;;;6.28;3.85;;;7.90;77.50;;;;;;4920528;29;20031;-84
2023/01/20 14:24:32;;;;;;;5.78;3.78;;;8.00;77.20;;;;;;4937580;29;20042;-83
2023/01/20 14:27:21;;;;;;;7.22;4.50;;;8.10;76.70;;;;;;4938408;29;20039;-83
2023/01/20 14:29:51;;;;;;;11.65;4.47;;;8.20;76.50;;;;;;4938088;29;20058;-85
2023/01/20 14:32:33;;;;;;;5.40;4.43;;;8.10;76.40;;;;;;4921101;29;20051;-85
2023/01/20 14:34:59;;;;;;;7.10;4.10;;;8.00;75.70;;;;;;4928015;29;20403;-84
2023/01/20 14:37:29;;;;;;;9.48;4.45;;;8.00;76.10;;;;;;4919216;29;20562;-83
2023/01/20 14:39:57;;;;;;;8.25;5.30;;;8.00;76.20;;;;;;4920544;29;20039;-83
2023/01/20 14:42:24;;;;;;;8.27;4.28;;;7.90;76.40;;;;;;4920308;29;20042;-83
2023/01/20 14:44:52;;;;;;;5.30;3.78;;;7.90;76.50;;;;;;4936689;29;20119;-83
2023/01/20 14:47:19;;;;;;;6.22;3.63;;;7.80;76.70;;;;;;4938019;29;20036;-84
2023/01/20 14:49:48;;;;;;;7.00;4.32;;;7.80;77.00;;;;;;4937653;29;20058;-83
2023/01/20 14:52:26;;;;;;;6.40;4.20;;;7.80;76.60;;;;;;4918645;29;20032;-84
2023/01/20 14:54:55;;;;;;;6.45;4.75;;;7.70;76.70;;;;;;4937517;29;20035;-84
2023/01/20 14:57:23;;;;;;;4.75;3.83;;;7.70;77.00;;;;;;4931853;29;20055;-84
2023/01/20 15:00:11;;;;;;;6.35;4.97;;;7.60;77.00;;;;;;4920606;29;20063;-84
2023/01/20 15:02:38;;;;;;;7.93;4.88;;;7.60;77.00;;;;;;4926441;29;20056;-83
2023/01/20 15:05:32;;;;;;;14.52;6.38;;;7.60;76.80;;;;;;4937699;29;20078;-84
2023/01/20 15:08:20;;;;;;;10.63;5.15;;;7.70;76.90;;;;;;4919363;29;20036;-84
2023/01/20 15:11:15;;;;;;;7.20;4.70;;;7.70;76.90;;;;;;4920169;29;20087;-84
2023/01/20 15:13:59;;;;;;;13.35;5.80;;;7.70;77.00;;;;;;4931928;29;20083;-84
2023/01/20 15:16:30;;;;;;;9.60;5.10;;;7.70;76.90;;;;;;4937770;29;20501;-83
2023/01/20 15:19:19;;;;;;;8.27;5.15;;;7.70;76.70;;;;;;4924170;29;20035;-84
2023/01/20 15:21:51;;;;;;;6.15;5.05;;;7.70;76.80;;;;;;4923365;29;20032;-83
2023/01/20 15:24:20;;;;;;;7.45;4.10;;;7.60;76.80;;;;;;4932562;29;20034;-84
2023/01/20 15:26:48;;;;;;;7.35;4.47;;;7.70;76.70;;;;;;4940004;29;20031;-83
2023/01/20 15:29:26;;;;;;;5.60;4.43;;;7.70;76.00;;;;;;4918052;29;20030;-83
2023/01/20 15:31:54;;;;;;;7.63;5.30;;;7.60;75.60;;;;;;4923161;29;20067;-83
2023/01/20 15:34:20;;;;;;;4.93;3.95;;;7.60;75.70;;;;;;4923429;29;20031;-83
2023/01/20 15:36:47;;;;;;;10.43;5.30;;;7.60;75.50;;;;;;4939545;29;20625;-83
2023/01/20 15:39:20;;;;;;;9.70;4.80;;;7.50;76.00;;;;;;4915225;29;20035;-83
2023/01/20 15:41:52;;;;;;;7.13;4.38;;;7.60;75.00;;;;;;4940838;29;20032;-83
2023/01/20 15:44:18;;;;;;;12.23;4.55;;;7.50;75.40;;;;;;4933110;29;20035;-84
2023/01/20 15:46:44;;;;;;;5.03;4.18;;;7.50;75.70;;;;;;4940686;29;20386;-83
2023/01/20 15:49:10;;;;;;;7.00;3.97;;;7.40;75.30;;;;;;4922655;29;20046;-84
2023/01/20 15:51:37;;;;;;;6.95;3.67;;;7.40;75.50;;;;;;4936185;29;20046;-84
2023/01/20 15:54:02;;;;;;;6.00;3.90;;;7.40;75.30;;;;;;4918412;29;20031;-84
2023/01/20 15:56:31;;;;;;;4.50;3.25;;;7.30;75.30;;;;;;4923492;29;20027;-84
2023/01/20 15:58:57;;;;;;;5.22;3.70;;;7.30;75.50;;;;;;4919103;29;20099;-84
2023/01/20 16:01:25;;;;;;;6.22;3.53;;;7.20;74.90;;;;;;4943210;29;20036;-85
2023/01/20 16:03:51;;;;;;;6.88;4.05;;;7.20;75.70;;;;;;4937035;29;20024;-84
2023/01/20 16:06:19;;;;;;;5.30;3.60;;;7.10;76.00;;;;;;4939936;29;20107;-85
2023/01/20 16:08:47;;;;;;;9.20;3.65;;;7.00;76.20;;;;;;4929621;29;20055;-85
2023/01/20 16:11:14;;;;;;;4.70;3.55;;;6.90;76.40;;;;;;4940942;29;20439;-84
2023/01/20 16:13:41;;;;;;;5.55;3.78;;;6.80;76.90;;;;;;4937430;29;20020;-85
2023/01/20 16:16:17;;;;;;;6.22;4.82;;;6.70;77.00;;;;;;4934799;29;20423;-86
2023/01/20 16:18:43;;;;;;;9.07;4.53;;;6.70;77.20;;;;;;4924782;29;20095;-85
2023/01/20 16:21:14;;;;;;;8.65;5.03;;;6.60;77.40;;;;;;4937053;29;20119;-85
2023/01/20 16:23:40;;;;;;;7.20;4.68;;;6.50;77.90;;;;;;4914963;29;20034;-85
2023/01/20 16:26:21;;;;;;;12.07;6.18;;;6.50;78.30;;;;;;4922128;29;20040;-84
2023/01/20 16:28:50;;;;;;;7.07;5.57;;;6.40;78.40;;;;;;4939531;29;20052;-86
2023/01/20 16:31:17;;;;;;;8.67;6.37;;;6.40;78.40;;;;;;4937409;29;20078;-86
2023/01/20 16:33:42;;;;;;;8.43;6.90;;;6.40;78.80;;;;;;4933442;29;20283;-89
2023/01/20 16:36:12;;;;;;;9.18;6.25;;;6.40;78.50;;;;;;4938571;29;20027;-87
2023/01/20 16:38:38;;;;;;;7.18;5.78;;;6.40;78.90;;;;;;4933414;29;20050;-86
2023/01/20 16:41:15;;;;;;;8.25;5.90;;;6.30;78.90;;;;;;4937831;29;20028;-88
2023/01/20 16:43:41;;;;;;;6.55;5.90;;;6.30;79.20;;;;;;4938412;29;20123;-87
2023/01/20 16:46:15;;;;;;;8.00;5.88;;;6.30;79.30;;;;;;4919651;29;20114;-83
2023/01/20 16:48:41;;;;;;;10.95;6.53;;;6.30;79.50;;;;;;4923699;29;20035;-87
2023/01/20 16:51:08;;;;;;;8.75;6.20;;;6.20;79.50;;;;;;4933581;29;20046;-86
2023/01/20 16:53:33;;;;;;;9.30;6.88;;;6.20;79.50;;;;;;4913671;29;20530;-80
2023/01/20 16:55:59;;;;;;;16.80;7.28;;;6.20;79.60;;;;;;4939359;29;20038;-87
2023/01/20 16:58:36;;;;;;;10.93;6.47;;;6.20;79.70;;;;;;4961046;29;20031;-86
2023/01/20 17:01:10;;;;;;;9.27;6.18;;;6.20;79.80;;;;;;4922474;29;20058;-90
2023/01/20 17:04:00;;;;;;;13.05;6.25;;;6.10;79.80;;;;;;4920758;29;20038;-86
2023/01/20 17:06:29;;;;;;;7.63;6.38;;;6.10;79.90;;;;;;4929686;29;20128;-91
2023/01/20 17:08:56;;;;;;;;;;;6.10;79.50;;;;;;4932560;29;20561;-87
2023/01/20 17:11:23;;;;;;;9.93;5.15;;;6.00;79.90;;;;;;4920001;29;19918;-86
2023/01/20 17:13:49;;;;;;;11.40;7.15;;;6.00;79.90;;;;;;4916230;29;20023;-86
2023/01/20 17:16:15;;;;;;;11.63;7.38;;;6.00;80.00;;;;;;4921941;29;20023;-87
2023/01/20 17:18:44;;;;;;;14.93;7.50;;;5.90;80.20;;;;;;4919714;29;20027;-87
2023/01/20 17:21:11;;;;;;;12.85;7.68;;;5.90;80.20;;;;;;4927991;29;20023;-87
2023/01/20 17:23:36;;;;;;;11.25;7.57;;;5.80;80.30;;;;;;4936384;29;20401;-88
2023/01/20 17:26:04;;;;;;;11.98;7.05;;;5.80;80.50;;;;;;4934710;29;20035;-90
2023/01/20 17:28:29;;;;;;;16.77;9.60;;;5.70;80.50;;;;;;4925066;29;20395;-77
2023/01/20 17:31:03;;;;;;;14.85;8.55;;;5.70;80.60;;;;;;4937571;29;20051;-78
2023/01/20 17:33:29;;;;;;;15.77;10.68;;;5.70;80.60;;;;;;4925329;29;20039;-78
2023/01/20 17:35:56;;;;;;;19.95;10.73;;;5.70;80.30;;;;;;4936849;29;20032;-78
2023/01/20 17:38:22;;;;;;;22.35;10.70;;;5.60;80.60;;;;;;4936622;29;20019;-78
2023/01/20 17:40:48;;;;;;;22.55;13.85;;;5.60;80.40;;;;;;4937897;29;20111;-78
2023/01/20 17:43:13;;;;;;;28.73;14.75;;;5.50;80.50;;;;;;4936833;29;20079;-78
2023/01/20 17:45:39;;;;;;;24.50;12.73;;;5.50;80.60;;;;;;4921011;29;20401;-78
2023/01/20 17:48:05;;;;;;;24.70;15.50;;;5.40;80.60;;;;;;4921230;29;20035;-78
2023/01/20 17:50:30;;;;;;;31.35;16.25;;;5.40;80.80;;;;;;4919773;29;20036;-78
2023/01/20 17:52:56;;;;;;;23.17;12.55;;;5.30;80.70;;;;;;4938308;29;20495;-78
2023/01/20 17:55:21;;;;;;;21.38;11.70;;;5.30;80.60;;;;;;4923560;29;20100;-78
2023/01/20 17:57:49;;;;;;;16.42;9.98;;;5.30;80.80;;;;;;4935500;29;20473;-78
2023/01/20 18:00:16;;;;;;;16.52;10.40;;;5.20;80.80;;;;;;4935591;29;20473;-77
2023/01/20 18:02:42;;;;;;;12.52;9.55;;;5.20;80.80;;;;;;4919449;29;20027;-77
2023/01/20 18:05:07;;;;;;;16.60;9.65;;;5.20;80.80;;;;;;4936956;29;20066;-78
2023/01/20 18:07:33;;;;;;;15.00;9.27;;;5.20;80.80;;;;;;4937528;29;20032;-77
2023/01/20 18:09:59;;;;;;;12.82;9.00;;;5.20;80.90;;;;;;4937884;29;20039;-80
2023/01/20 18:12:25;;;;;;;13.68;10.13;;;5.10;81.00;;;;;;4938270;29;20031;-80
2023/01/20 18:14:53;;;;;;;14.30;9.88;;;5.10;80.70;;;;;;4936178;29;20063;-80
2023/01/20 18:17:19;;;;;;;16.40;10.88;;;5.10;80.90;;;;;;4937993;29;20027;-80
2023/01/20 18:19:46;;;;;;;13.10;9.25;;;5.10;80.80;;;;;;4937701;29;20589;-80
2023/01/20 18:22:13;;;;;;;13.27;8.10;;;5.10;80.80;;;;;;4934834;29;20130;-87
2023/01/20 18:24:38;;;;;;;12.07;8.85;;;5.00;80.70;;;;;;4938512;29;20398;-82
2023/01/20 18:27:05;;;;;;;15.05;9.90;;;4.90;80.80;;;;;;4933738;29;20112;-79
2023/01/20 18:29:34;;;;;;;12.60;10.02;;;4.80;80.90;;;;;;4923072;29;20036;-77
2023/01/20 18:32:00;;;;;;;10.40;8.65;;;4.80;80.90;;;;;;4936971;29;20082;-80
2023/01/20 18:34:25;;;;;;;9.38;8.13;;;4.80;80.90;;;;;;4938129;29;20491;-81
2023/01/20 18:36:51;;;;;;;15.07;10.13;;;4.70;81.00;;;;;;4938635;29;20023;-84
2023/01/20 18:39:23;;;;;;;10.55;7.35;;;4.70;81.10;;;;;;4914504;29;20032;-87
2023/01/20 18:41:50;;;;;;;12.15;7.82;;;4.70;81.00;;;;;;4929569;29;20071;-87
2023/01/20 18:44:16;;;;;;;18.15;9.75;;;4.70;81.20;;;;;;4919221;29;20032;-89
2023/01/20 18:46:42;;;;;;;14.52;9.93;;;4.70;81.40;;;;;;4923753;29;20110;-78
2023/01/20 18:49:12;;;;;;;14.05;10.57;;;4.70;81.30;;;;;;4941410;29;20036;-84
2023/01/20 18:51:37;;;;;;;16.63;11.40;;;4.70;81.10;;;;;;4929498;29;20024;-83
2023/01/20 18:54:10;;;;;;;17.00;12.50;;;4.70;81.10;;;;;;4923560;29;20525;-78